Terminal Aerodrome Forecast
Issued by NWS

Home | Current Version | Previous Version | Text Only | Print | Product List | Glossary Off
Versions: 1 2 3 4 5 6 7 8 9 10 11 12 13

834
FTUS45 KGGW 160525
TAFSDY
TAF
KSDY 160525Z 1606/1706 22007KT P6SM SKC
     FM161600 22011KT P6SM BKN220
     FM170100 25007KT P6SM BKN110=

USA.gov is the U.S. government's official web portal to all federal, state and local government web resources and services.